Flight Track Log - Related Links

Times and Time Zones

All times are in EST time to prevent confusion due to time zone crossing. See the AAY863 flight status page for this flight to view local times or setup timezone preferences in your user account.

Time Position Orientation Groundspeed Altitude Reporting Facility
EST Latitude Longitude Course Direction KTS MPH feet Rate Location/Type
Thu 07:44:37 PM 41.8344 -91.7589 131° Southeast 234 269 3,800  Level Chicago Center
Thu 07:45:39 PM 41.7403 -91.7172 162° South 291 335 6,700 2,758 Climbing Chicago Center
Thu 07:46:41 PM 41.6561 -91.6756 160° South 316 364 9,500 2,129 Climbing Chicago Center
Thu 07:47:43 PM 41.5681 -91.6275 158° South 337 388 11,100 1,645 Climbing Chicago Center
Thu 07:48:45 PM 41.4836 -91.5211 137° Southeast 404 465 12,900 2,081 Climbing Chicago Center
Thu 07:49:00 PM 40.9606 -90.9575 131° Southeast  Level FlightAware Approximate
Thu 07:49:47 PM 41.3914 -91.4186 140° Southeast 426 490 15,400  Level Chicago Center
Thu 07:50:49 PM 41.2911 -91.3050 140° Southeast 450 518 17,600 2,293 Climbing Chicago Center
Thu 07:51:50 PM 41.1903 -91.1917 140° Southeast 471 542 20,100 2,537 Climbing Chicago Center
Thu 07:52:52 PM 41.0672 -91.0547 140° Southeast 482 555 22,800 1,984 Climbing Chicago Center
Thu 07:53:54 PM 40.9619 -90.9375 140° Southeast 492 566 24,200 1,694 Climbing Chicago Center
Thu 07:54:56 PM 40.8539 -90.8175 140° Southeast 507 583 26,300 1,597 Climbing Chicago Center
Thu 07:55:58 PM 40.7469 -90.6992 140° Southeast 505 581 27,500 1,161 Climbing Chicago Center
Thu 07:57:00 PM 40.6364 -90.5781 140° Southeast 516 594 28,700 1,366 Climbing Chicago Center
Thu 07:58:01 PM 40.5244 -90.4550 140° Southeast 525 604 30,300 1,415 Climbing Chicago Center
Thu 07:59:03 PM 40.3953 -90.3142 140° Southeast 514 592 31,600 1,258 Climbing Chicago Center
Thu 08:00:05 PM 40.2864 -90.1961 140° Southeast 512 589 32,900 677 Climbing Chicago Center
Thu 08:01:07 PM 40.1772 -90.0786 141° Southeast 512 589 33,000 48 Climbing Chicago Center
Thu 08:02:09 PM 40.0683 -89.9611 140° Southeast 512 589 33,000  Level Chicago Center
Thu 08:03:11 PM 39.9581 -89.8450 141° Southeast 511 588 33,000  Level Chicago Center
Thu 08:04:13 PM 39.8481 -89.7264 140° Southeast 513 590 33,000  Level Chicago Center
Thu 08:05:15 PM 39.7150 -89.5836 140° Southeast 517 595 33,000  Level Chicago Center
Thu 08:06:16 PM 39.6031 -89.4667 141° Southeast 518 596 33,000  Level Chicago Center
Thu 08:07:18 PM 39.4919 -89.3489 141° Southeast 517 595 33,000  Level Chicago Center
Thu 08:08:20 PM 39.3814 -89.2322 141° Southeast 514 592 33,000  Level Chicago Center
Thu 08:09:22 PM 39.2706 -89.1222 142° Southeast 506 582 33,000  Level Chicago Center
Thu 08:10:24 PM 39.1600 -89.0050 141° Southeast 512 589 33,000  Level Chicago Center
Thu 08:11:25 PM 39.0269 -88.8633 140° Southeast 519 597 33,000  Level Chicago Center
Thu 08:12:27 PM 38.9158 -88.7494 141° Southeast 515 593 33,000  Level Chicago Center
Thu 08:13:50 PM 38.7742 -88.6106 143° Southeast 511 588 33,000  Level Kansas City Center
Thu 08:14:52 PM 38.6622 -88.4967 142° Southeast 513 590 33,000  Level Kansas City Center
Thu 08:15:54 PM 38.5281 -88.3600 141° Southeast 512 589 33,000  Level Kansas City Center
Thu 08:16:55 PM 38.4156 -88.2472 142° Southeast 512 589 33,000  Level Kansas City Center
Thu 08:17:57 PM 38.3044 -88.1342 141° Southeast 512 589 33,000  Level Kansas City Center
Thu 08:19:01 PM 38.1906 -88.0231 143° Southeast 517 595 33,000  Level Indianapolis Center
Thu 08:20:02 PM 38.0769 -87.9100 142° Southeast 518 596 33,000  Level Indianapolis Center
Thu 08:21:03 PM 37.9633 -87.7978 142° Southeast 519 597 33,000  Level Indianapolis Center
Thu 08:22:04 PM 37.8422 -87.7086 150° Southeast 507 583 33,000  Level Indianapolis Center
Thu 08:23:05 PM 37.6900 -87.6153 154° Southeast 505 581 33,000  Level Indianapolis Center
Thu 08:24:07 PM 37.5619 -87.5381 154° Southeast 506 582 33,000  Level Indianapolis Center
Thu 08:25:08 PM 37.4336 -87.4594 154° Southeast 507 583 33,000  Level Indianapolis Center
Thu 08:26:09 PM 37.3064 -87.3814 154° Southeast 505 581 33,000  Level Indianapolis Center
Thu 08:27:10 PM 37.1792 -87.3058 155° Southeast 503 579 33,000  Level Indianapolis Center
Thu 08:28:02 PM 37.0728 -87.2472 156° South 500 575 33,000  Level Memphis Center
Thu 08:29:04 PM 36.9428 -87.1806 158° South 498 573 33,000  Level Memphis Center
Thu 08:30:05 PM 36.8147 -87.1111 157° South 498 573 33,000  Level Memphis Center
Thu 08:31:07 PM 36.6861 -87.0431 157° South 497 572 33,000  Level Memphis Center
Thu 08:32:08 PM 36.5561 -86.9744 157° South 501 577 33,000  Level Memphis Center
Thu 08:33:10 PM 36.4283 -86.9072 157° South 497 572 33,000  Level Memphis Center
Thu 08:34:12 PM 36.2897 -86.8350 157° South 496 571 33,000  Level Memphis Center
Thu 08:35:13 PM 36.1611 -86.7681 157° South 491 565 33,000  Level Memphis Center
Thu 08:36:15 PM 36.0339 -86.7017 157° South 492 566 33,000  Level Memphis Center
Thu 08:37:16 PM 35.9056 -86.6358 157° South 494 568 33,000  Level Memphis Center
Thu 08:38:18 PM 35.7783 -86.5683 157° South 493 567 33,000  Level Memphis Center
Thu 08:39:19 PM 35.6500 -86.5025 157° South 494 568 33,000  Level Memphis Center
Thu 08:40:21 PM 35.5000 -86.4258 157° South 496 571 33,000  Level Memphis Center
Thu 08:41:22 PM 35.3719 -86.3600 157° South 496 571 33,000  Level Memphis Center
Thu 08:41:59 PM 35.3069 -86.3292 159° South 494 568 33,000  Level Atlanta Center
Thu 08:42:59 PM 35.1706 -86.2544 156° South 488 562 33,000  Level Atlanta Center
Thu 08:43:59 PM 35.0422 -86.1900 158° South 488 562 33,000  Level Atlanta Center
Thu 08:44:59 PM 34.9161 -86.1311 159° South 494 568 33,000  Level Atlanta Center
Thu 08:45:59 PM 34.7897 -86.0622 156° South 494 568 33,000  Level Atlanta Center
Thu 08:46:59 PM 34.6636 -85.9958 157° South 494 568 33,000  Level Atlanta Center
Thu 08:47:59 PM 34.5331 -85.9325 158° South 494 568 33,000  Level Atlanta Center
Thu 08:48:59 PM 34.4006 -85.8664 158° South 500 575 33,000  Level Atlanta Center
Thu 08:49:59 PM 34.2761 -85.8086 159° South 499 574 33,000  Level Atlanta Center
Thu 08:50:59 PM 34.1478 -85.7456 158° South 486 559 33,000  Level Atlanta Center
Thu 08:51:59 PM 34.0233 -85.6831 157° South 492 566 33,000  Level Atlanta Center
Thu 08:52:59 PM 33.8928 -85.6203 158° South 492 566 33,000  Level Atlanta Center
Thu 08:53:59 PM 33.7661 -85.5581 158° South 492 566 33,000  Level Atlanta Center
Thu 08:54:59 PM 33.6353 -85.4958 158° South 492 566 33,000  Level Atlanta Center
Thu 08:55:59 PM 33.5067 -85.4314 157° South 492 566 33,000  Level Atlanta Center
Thu 08:56:59 PM 33.3822 -85.3722 158° South 487 560 33,000  Level Atlanta Center
Thu 08:57:59 PM 33.2514 -85.3081 158° South 494 568 33,000  Level Atlanta Center
Thu 08:58:59 PM 33.1225 -85.2467 158° South 499 574 33,000  Level Atlanta Center
Thu 08:59:59 PM 33.0125 -85.1933 158° South 488 562 33,000  Level Atlanta Center
Thu 09:00:59 PM 32.8686 -85.1517 166° South 488 562 33,000  Level Atlanta Center
Thu 09:01:59 PM 32.7378 -85.0958 160° South 478 550 33,000  Level Atlanta Center
Thu 09:02:59 PM 32.6169 -85.0572 165° South 471 542 33,000  Level Atlanta Center
Thu 09:03:59 PM 32.4858 -85.0114 164° South 470 541 33,000  Level Atlanta Center
Thu 09:04:59 PM 32.3567 -84.9708 165° South 483 556 33,000  Level Atlanta Center
Thu 09:07:11 PM 32.0781 -84.8761 164° South 470 541 33,000  Level Jacksonville Center
Thu 09:08:11 PM 31.9533 -84.8342 164° South 470 541 33,000  Level Jacksonville Center
Thu 09:09:11 PM 31.8431 -84.8000 165° South 470 541 33,000  Level Jacksonville Center
Thu 09:10:11 PM 31.7144 -84.7561 164° South 470 541 33,000  Level Jacksonville Center
Thu 09:11:11 PM 31.5897 -84.7144 164° South 476 548 33,000  Level Jacksonville Center
Thu 09:12:11 PM 31.4650 -84.6731 164° South 470 541 33,000  Level Jacksonville Center
Thu 09:13:11 PM 31.3383 -84.6317 164° South 470 541 33,000  Level Jacksonville Center
Thu 09:14:11 PM 31.2114 -84.5881 164° South 470 541 33,000  Level Jacksonville Center
Thu 09:15:11 PM 31.0889 -84.5350 160° South 475 547 33,000  Level Jacksonville Center
Thu 09:16:11 PM 30.9644 -84.4722 157° South 482 555 33,000  Level Jacksonville Center
Thu 09:17:11 PM 30.8400 -84.4097 157° South 488 562 33,000  Level Jacksonville Center
Thu 09:18:11 PM 30.7197 -84.3472 156° South 488 562 33,000  Level Jacksonville Center
Thu 09:19:11 PM 30.5950 -84.2850 157° South 488 562 33,000  Level Jacksonville Center
Thu 09:20:11 PM 30.4622 -84.2181 157° South 482 555 33,000  Level Jacksonville Center
Thu 09:21:11 PM 30.3583 -84.1636 156° South 467 537 33,000  Level Jacksonville Center
Thu 09:22:11 PM 30.2317 -84.1019 157° South 472 543 33,000  Level Jacksonville Center
Thu 09:23:11 PM 30.1111 -84.0428 157° South 472 543 33,000 -500 Level Jacksonville Center
Thu 09:24:11 PM 29.9883 -83.9789 156° South 472 543 32,000 -900 Descending Jacksonville Center
Thu 09:25:11 PM 29.8658 -83.9200 157° South 472 543 31,200 -500 Descending Jacksonville Center
Thu 09:26:11 PM 29.7306 -83.8397 153° Southeast 486 559 31,000 -450 Descending Jacksonville Center
Thu 09:27:11 PM 29.6142 -83.7644 151° Southeast 486 559 30,300 -950 Descending Jacksonville Center
Thu 09:28:11 PM 29.4958 -83.6894 151° Southeast 486 559 29,100 -1,250 Descending Jacksonville Center
Thu 09:29:11 PM 29.3753 -83.6100 150° Southeast 492 566 27,800 -1,050 Descending Jacksonville Center
Thu 09:30:11 PM 29.2544 -83.5328 151° Southeast 492 566 27,000 -400 Descending Jacksonville Center
Thu 09:31:11 PM 29.1358 -83.4561 151° Southeast 492 566 27,000 -450 Level Jacksonville Center
Thu 09:32:11 PM 29.0192 -83.3864 152° Southeast 492 566 26,100 -1,600 Descending Jacksonville Center
Thu 09:33:11 PM 28.9025 -83.3122 151° Southeast 486 559 23,800 -2,350 Descending Jacksonville Center
Thu 09:34:11 PM 28.7922 -83.2408 150° Southeast 472 543 21,400 -2,303 Descending Jacksonville Center
Thu 09:36:29 PM 28.5500 -83.0833 150° Southeast 420 483 16,200 -2,353 Descending Tampa TRACON
Thu 09:37:35 PM 28.4333 -83.0167 153° Southeast 411 473 13,400 -2,238 Descending Tampa TRACON
Thu 09:38:35 PM 28.3500 -82.9500 145° Southeast 387 445 11,500 -1,474 Descending Tampa TRACON
Thu 09:39:29 PM 28.2667 -82.9167 161° South 348 400 10,600 -1,053 Descending Tampa TRACON
Thu 09:40:29 PM 28.2000 -82.8667 147° Southeast 308 354 9,500 -1,381 Descending Tampa TRACON
Thu 09:41:35 PM 28.1000 -82.8000 150° Southeast 299 344 7,700 -1,762 Descending Tampa TRACON
Thu 09:42:35 PM 28.0333 -82.7667 156° South 283 326 5,800 -1,900 Descending Tampa TRACON
Thu 09:43:35 PM 27.9667 -82.7667 180° South 274 315 3,900 -1,600 Descending Tampa TRACON
Thu 09:44:35 PM 27.9000 -82.7500 168° South 234 269 2,600 -950 Descending Tampa TRACON
Thu 09:45:35 PM 27.8333 -82.7333 168° South 188 216 2,000 -700 Descending Tampa TRACON
Thu 09:46:35 PM 27.8500 -82.6833 69° East 154 177 1,200 -800 Descending Tampa TRACON
Thu 09:47:35 PM 27.8833 -82.6833 360° North 125 144 400 -800 Descending Tampa TRACON

Login

Don't have an account? Register now (free) for customized features, flight alerts, and more!